createdAt,value
2024-03-04T00:01:31.188Z,10.93
2024-03-04T00:03:57.776Z,10.93
2024-03-04T00:06:24.339Z,10.83
2024-03-04T00:08:50.854Z,10.88
2024-03-04T00:11:19.232Z,10.76
2024-03-04T00:13:45.925Z,10.85
2024-03-04T00:16:12.491Z,10.81
2024-03-04T00:18:39.028Z,10.82
2024-03-04T00:21:06.457Z,10.83
2024-03-04T00:23:34.491Z,10.88
2024-03-04T00:26:02.070Z,10.88
2024-03-04T00:28:28.677Z,10.93
2024-03-04T00:30:56.020Z,10.89
2024-03-04T00:33:22.860Z,10.92
2024-03-04T00:35:49.580Z,10.97
2024-03-04T00:38:16.158Z,10.96
2024-03-04T00:40:42.671Z,10.98
2024-03-04T00:43:09.420Z,10.98
2024-03-04T00:45:36.628Z,10.99
2024-03-04T00:48:04.048Z,11.00
2024-03-04T00:50:31.254Z,10.96
2024-03-04T00:52:59.755Z,10.97
2024-03-04T00:55:26.800Z,11.03
2024-03-04T00:57:53.368Z,11.03
2024-03-04T01:00:20.040Z,11.00
2024-03-04T01:02:46.515Z,11.03
2024-03-04T01:05:13.214Z,11.04
2024-03-04T01:07:39.807Z,11.09
2024-03-04T01:10:07.619Z,11.11
2024-03-04T01:12:34.742Z,11.13
2024-03-04T01:15:01.876Z,11.15
2024-03-04T01:17:29.513Z,11.15
2024-03-04T01:19:56.599Z,11.17
2024-03-04T01:22:23.375Z,11.13
2024-03-04T01:24:51.039Z,11.22
2024-03-04T01:27:18.365Z,11.21
2024-03-04T01:29:44.907Z,11.25
2024-03-04T01:32:11.772Z,11.21
2024-03-04T01:34:41.728Z,11.26
2024-03-04T01:37:10.079Z,11.24
2024-03-04T01:39:37.237Z,11.21
2024-03-04T01:42:04.089Z,11.23
2024-03-04T01:44:36.922Z,11.28
2024-03-04T01:47:06.733Z,11.25
2024-03-04T01:49:36.287Z,11.24
2024-03-04T01:52:04.133Z,11.20
2024-03-04T01:54:31.071Z,11.17
2024-03-04T01:56:58.713Z,11.20
2024-03-04T01:59:26.283Z,11.19
2024-03-04T02:01:53.645Z,11.18
2024-03-04T02:04:20.827Z,11.17
2024-03-04T02:06:48.897Z,11.17
2024-03-04T02:09:16.757Z,11.13
2024-03-04T02:11:44.957Z,11.10
2024-03-04T02:14:12.378Z,11.15
2024-03-04T02:16:39.334Z,11.14
2024-03-04T02:19:09.073Z,11.09
2024-03-04T02:21:43.747Z,11.06
2024-03-04T02:24:10.318Z,11.08
2024-03-04T02:26:37.083Z,11.08
2024-03-04T02:29:03.794Z,11.09
2024-03-04T02:31:30.893Z,11.08
2024-03-04T02:34:01.110Z,10.97
2024-03-04T02:36:27.693Z,11.04
2024-03-04T02:38:54.870Z,11.02
2024-03-04T02:41:22.108Z,11.01
2024-03-04T02:43:48.646Z,10.93
2024-03-04T02:46:19.970Z,10.94
2024-03-04T02:48:47.777Z,10.84
2024-03-04T02:51:14.313Z,10.86
2024-03-04T02:53:40.772Z,10.78
2024-03-04T02:56:07.505Z,10.79
2024-03-04T02:58:34.554Z,10.74
2024-03-04T03:01:01.483Z,10.72
2024-03-04T03:03:28.015Z,10.66
2024-03-04T03:05:54.541Z,10.63
2024-03-04T03:08:21.080Z,10.67
2024-03-04T03:10:48.333Z,10.63
2024-03-04T03:13:15.135Z,10.63
2024-03-04T03:15:41.746Z,10.65
2024-03-04T03:18:09.511Z,10.59
2024-03-04T03:20:36.208Z,10.68
2024-03-04T03:23:02.762Z,10.67
2024-03-04T03:25:29.297Z,10.63
2024-03-04T03:27:55.896Z,10.64
2024-03-04T03:30:24.259Z,10.74
2024-03-04T03:32:50.768Z,10.73
2024-03-04T03:35:17.304Z,10.77
2024-03-04T03:37:44.063Z,10.81
2024-03-04T03:40:11.374Z,10.78
2024-03-04T03:42:37.902Z,10.79
2024-03-04T03:45:04.881Z,10.78
2024-03-04T03:47:31.886Z,10.83
2024-03-04T03:49:58.458Z,10.79
2024-03-04T03:52:25.105Z,10.85
2024-03-04T03:54:51.630Z,10.84
2024-03-04T03:57:18.086Z,10.84
2024-03-04T03:59:45.038Z,10.85
2024-03-04T04:02:11.626Z,10.85
2024-03-04T04:04:38.280Z,10.87
2024-03-04T04:07:05.004Z,10.88
2024-03-04T04:09:31.582Z,10.89
2024-03-04T04:11:58.176Z,10.85
2024-03-04T04:14:24.803Z,10.91
2024-03-04T04:16:51.657Z,10.86
2024-03-04T04:19:18.337Z,10.92
2024-03-04T04:21:44.957Z,10.92
2024-03-04T04:24:12.028Z,10.92
2024-03-04T04:26:38.573Z,10.92
2024-03-04T04:29:05.052Z,10.89
2024-03-04T04:31:31.777Z,10.93
2024-03-04T04:33:58.497Z,10.91
2024-03-04T04:36:25.034Z,10.93
2024-03-04T04:38:51.520Z,10.85
2024-03-04T04:41:18.118Z,10.92
2024-03-04T04:43:44.611Z,10.90
2024-03-04T04:46:11.179Z,10.92
2024-03-04T04:48:39.033Z,10.92
2024-03-04T04:51:05.567Z,10.89
2024-03-04T04:53:32.940Z,10.83
2024-03-04T04:55:59.498Z,10.88
2024-03-04T04:58:26.516Z,10.87
2024-03-04T05:00:55.700Z,10.80
2024-03-04T05:03:33.820Z,10.84
2024-03-04T05:06:15.355Z,10.77
2024-03-04T05:08:41.924Z,10.80
2024-03-04T05:11:11.543Z,10.79
2024-03-04T05:13:38.152Z,10.76
2024-03-04T05:16:06.448Z,10.77
2024-03-04T05:18:33.085Z,10.73
2024-03-04T05:20:59.607Z,10.78
2024-03-04T05:23:26.161Z,10.71
2024-03-04T05:25:53.414Z,10.69
2024-03-04T05:28:20.043Z,10.64
2024-03-04T05:30:46.965Z,10.67
2024-03-04T05:33:14.301Z,10.71
2024-03-04T05:35:41.170Z,10.68
2024-03-04T05:38:07.848Z,10.67
2024-03-04T05:40:34.361Z,10.65
2024-03-04T05:43:00.975Z,10.68
2024-03-04T05:45:28.856Z,10.64
2024-03-04T05:47:55.587Z,10.68
2024-03-04T05:50:22.277Z,10.67
2024-03-04T05:52:49.114Z,10.62
2024-03-04T05:55:16.348Z,10.62
2024-03-04T05:57:44.087Z,10.67
2024-03-04T06:00:15.675Z,10.68
2024-03-04T06:02:43.378Z,10.68
2024-03-04T06:05:14.585Z,10.67
2024-03-04T06:07:42.419Z,10.65
2024-03-04T06:10:09.862Z,10.67
2024-03-04T06:12:36.601Z,10.64
2024-03-04T06:15:03.793Z,10.69
2024-03-04T06:17:30.478Z,10.69
2024-03-04T06:19:57.025Z,10.71
2024-03-04T06:22:23.862Z,10.71
2024-03-04T06:24:50.881Z,10.75
2024-03-04T06:27:17.406Z,10.79
2024-03-04T06:29:44.294Z,10.74
2024-03-04T06:32:10.798Z,10.81
2024-03-04T06:34:37.771Z,10.85
2024-03-04T06:37:04.750Z,10.82
2024-03-04T06:39:31.401Z,10.89
2024-03-04T06:41:57.922Z,10.94
2024-03-04T06:44:24.430Z,10.88
2024-03-04T06:46:50.905Z,11.00
2024-03-04T06:49:17.647Z,10.99
2024-03-04T06:51:44.377Z,11.05
2024-03-04T06:54:15.672Z,11.08
2024-03-04T06:56:42.684Z,11.13
2024-03-04T06:59:09.351Z,11.15
2024-03-04T07:01:35.944Z,11.17
2024-03-04T07:04:02.580Z,11.21
2024-03-04T07:06:29.215Z,11.25
2024-03-04T07:08:55.903Z,11.27
2024-03-04T07:11:22.451Z,11.30
2024-03-04T07:13:49.414Z,11.35
2024-03-04T07:16:17.148Z,11.39
2024-03-04T07:18:44.130Z,11.42
2024-03-04T07:21:21.412Z,11.42
2024-03-04T07:23:48.011Z,11.47
2024-03-04T07:26:17.225Z,11.49
2024-03-04T07:28:45.497Z,11.51
2024-03-04T07:31:12.656Z,11.55
2024-03-04T07:33:39.269Z,11.60
2024-03-04T07:36:06.092Z,11.56
2024-03-04T07:38:33.248Z,11.68
2024-03-04T07:40:59.815Z,11.68
2024-03-04T07:43:28.873Z,11.71
2024-03-04T07:45:55.386Z,11.75
2024-03-04T07:48:22.023Z,11.84
2024-03-04T07:50:48.626Z,11.90
2024-03-04T07:53:15.108Z,11.92
2024-03-04T07:55:41.709Z,11.91
2024-03-04T07:58:08.217Z,11.97
2024-03-04T08:00:34.780Z,12.07
2024-03-04T08:03:01.395Z,12.12
2024-03-04T08:05:28.730Z,12.14
2024-03-04T08:07:57.408Z,12.18
2024-03-04T08:10:24.176Z,12.21
2024-03-04T08:12:50.854Z,12.29
2024-03-04T08:15:17.573Z,12.36
2024-03-04T08:17:53.983Z,12.35
2024-03-04T08:20:32.495Z,12.45
2024-03-04T08:23:01.296Z,12.49
2024-03-04T08:25:27.900Z,12.53
2024-03-04T08:27:54.478Z,12.58
2024-03-04T08:30:20.983Z,12.62
2024-03-04T08:32:47.497Z,12.64
2024-03-04T08:35:14.116Z,12.66
2024-03-04T08:37:41.113Z,12.69
2024-03-04T08:40:08.903Z,12.74
2024-03-04T08:42:39.028Z,12.82
2024-03-04T08:45:06.813Z,12.82
2024-03-04T08:47:33.412Z,12.80
2024-03-04T08:50:01.789Z,12.88
2024-03-04T08:52:29.206Z,12.91
2024-03-04T08:54:55.822Z,12.95
2024-03-04T08:57:22.469Z,13.06
2024-03-04T08:59:48.982Z,13.10
2024-03-04T09:02:15.598Z,13.18
2024-03-04T09:04:42.285Z,13.24
2024-03-04T09:07:10.736Z,13.26
2024-03-04T09:09:37.445Z,13.30
2024-03-04T09:12:05.133Z,13.36
2024-03-04T09:14:32.111Z,13.42
2024-03-04T09:16:58.682Z,13.44
2024-03-04T09:19:25.303Z,13.52
2024-03-04T09:21:51.841Z,13.55
2024-03-04T09:24:18.411Z,13.59
2024-03-04T09:26:47.248Z,13.67
2024-03-04T09:29:14.319Z,13.62
2024-03-04T09:31:41.405Z,13.77
2024-03-04T09:34:08.088Z,13.79
2024-03-04T09:36:35.128Z,13.88
2024-03-04T09:39:01.769Z,14.14
2024-03-04T09:41:32.096Z,14.13
2024-03-04T09:43:58.826Z,14.32
2024-03-04T09:46:25.877Z,14.42
2024-03-04T09:48:54.027Z,14.47
2024-03-04T09:51:24.355Z,14.45
2024-03-04T09:53:52.032Z,14.65
2024-03-04T09:56:18.684Z,14.74
2024-03-04T09:58:46.369Z,14.82
2024-03-04T10:01:13.435Z,14.84
2024-03-04T10:03:40.166Z,14.93
2024-03-04T10:06:07.617Z,14.97
2024-03-04T10:08:34.220Z,15.06
2024-03-04T10:11:01.031Z,15.13
2024-03-04T10:13:29.355Z,15.19
2024-03-04T10:15:55.999Z,15.22
2024-03-04T10:18:22.857Z,15.29
2024-03-04T10:20:49.464Z,15.31
2024-03-04T10:23:18.798Z,15.42
2024-03-04T10:25:45.398Z,15.43
2024-03-04T10:28:14.168Z,15.46
2024-03-04T10:30:40.941Z,15.57
2024-03-04T10:33:07.738Z,15.63
2024-03-04T10:35:35.548Z,15.72
2024-03-04T10:38:07.808Z,15.77
2024-03-04T10:40:35.856Z,15.89
2024-03-04T10:43:05.446Z,15.97
2024-03-04T10:45:35.251Z,15.96
2024-03-04T10:48:03.113Z,16.13
2024-03-04T10:50:29.906Z,16.14
2024-03-04T10:52:59.619Z,16.39
2024-03-04T10:55:28.258Z,16.72
2024-03-04T10:58:01.602Z,16.71
2024-03-04T11:00:31.500Z,16.77
2024-03-04T11:03:01.592Z,16.82
2024-03-04T11:05:33.102Z,16.80
2024-03-04T11:08:17.863Z,16.81
2024-03-04T11:10:50.862Z,16.78
2024-03-04T11:13:33.719Z,16.84
2024-03-04T11:16:08.217Z,16.86
2024-03-04T11:18:57.781Z,16.82
2024-03-04T11:21:25.521Z,16.82
2024-03-04T11:23:52.705Z,16.87
2024-03-04T11:26:22.851Z,16.87
2024-03-04T11:28:51.562Z,16.92
2024-03-04T11:31:27.601Z,16.93
2024-03-04T11:34:01.506Z,17.04
2024-03-04T11:36:29.509Z,17.08
2024-03-04T11:38:58.126Z,17.11
2024-03-04T11:41:45.436Z,17.14
2024-03-04T11:44:13.106Z,17.15
2024-03-04T11:46:41.582Z,17.18
2024-03-04T11:49:45.860Z,17.18
2024-03-04T11:52:21.644Z,17.17
2024-03-04T11:54:49.893Z,17.27
2024-03-04T11:57:17.703Z,17.33
2024-03-04T12:00:01.098Z,17.45
2024-03-04T12:02:28.059Z,17.50
2024-03-04T12:04:54.946Z,17.48
2024-03-04T12:07:24.494Z,17.53
2024-03-04T12:10:05.268Z,17.50
2024-03-04T12:12:41.440Z,17.57
2024-03-04T12:15:10.886Z,17.52
2024-03-04T12:17:38.690Z,17.60
2024-03-04T12:20:08.362Z,17.50
2024-03-04T12:22:35.395Z,17.58
2024-03-04T12:25:03.734Z,17.61
2024-03-04T12:27:31.165Z,17.61
2024-03-04T12:30:09.181Z,17.66
2024-03-04T12:32:36.634Z,17.70
2024-03-04T12:35:03.691Z,17.70
2024-03-04T12:37:33.879Z,17.83
2024-03-04T12:40:05.385Z,17.80
2024-03-04T12:42:32.029Z,17.77
2024-03-04T12:45:02.970Z,17.85
2024-03-04T12:47:29.523Z,17.88
2024-03-04T12:49:56.044Z,17.85
2024-03-04T12:52:22.798Z,17.92
2024-03-04T12:54:49.313Z,17.90
2024-03-04T12:57:15.915Z,17.92
2024-03-04T12:59:45.919Z,17.94
2024-03-04T13:02:12.487Z,18.00
2024-03-04T13:04:40.034Z,17.98
2024-03-04T13:07:06.580Z,17.97
2024-03-04T13:09:33.101Z,18.02
2024-03-04T13:11:59.611Z,18.03
2024-03-04T13:14:26.133Z,17.94
2024-03-04T13:16:52.763Z,17.86
2024-03-04T13:19:19.370Z,17.84
2024-03-04T13:21:46.101Z,17.89
2024-03-04T13:24:12.690Z,17.93
2024-03-04T13:26:41.625Z,17.96
2024-03-04T13:29:11.643Z,17.92
2024-03-04T13:31:38.265Z,17.97
2024-03-04T13:34:05.319Z,17.85
2024-03-04T13:36:31.884Z,17.96
2024-03-04T13:38:58.465Z,17.94
2024-03-04T13:41:25.088Z,17.89
2024-03-04T13:43:51.593Z,17.99
2024-03-04T13:46:18.367Z,17.99
2024-03-04T13:48:44.918Z,17.99
2024-03-04T13:51:11.488Z,18.00
2024-03-04T13:53:38.202Z,17.99
2024-03-04T13:56:05.275Z,18.01
2024-03-04T13:58:32.012Z,17.99
2024-03-04T14:00:58.540Z,17.98
2024-03-04T14:03:25.141Z,17.91
2024-03-04T14:05:51.638Z,17.94
2024-03-04T14:08:18.112Z,17.90
2024-03-04T14:10:45.459Z,17.90
2024-03-04T14:13:15.116Z,17.87
2024-03-04T14:15:41.996Z,17.84
2024-03-04T14:18:08.668Z,17.81
2024-03-04T14:20:36.257Z,17.82
2024-03-04T14:23:02.757Z,17.79
2024-03-04T14:25:29.352Z,17.77
2024-03-04T14:27:55.872Z,17.77
2024-03-04T14:30:23.163Z,17.74
2024-03-04T14:32:49.755Z,17.67
2024-03-04T14:35:16.419Z,17.66
2024-03-04T14:37:43.140Z,17.68
2024-03-04T14:40:10.261Z,17.66
2024-03-04T14:42:37.782Z,17.64
2024-03-04T14:45:05.676Z,17.63
2024-03-04T14:47:35.883Z,17.62
2024-03-04T14:50:02.465Z,17.57
2024-03-04T14:52:29.033Z,17.61
2024-03-04T14:54:56.429Z,17.58
2024-03-04T14:57:22.989Z,17.63
2024-03-04T14:59:49.430Z,17.63
2024-03-04T15:02:16.033Z,17.58
2024-03-04T15:04:42.525Z,17.61
2024-03-04T15:07:09.531Z,17.57
2024-03-04T15:09:36.574Z,17.57
2024-03-04T15:12:07.797Z,17.51
2024-03-04T15:14:35.545Z,17.55
2024-03-04T15:17:06.888Z,17.53
2024-03-04T15:19:34.227Z,17.49
2024-03-04T15:22:00.771Z,17.50
2024-03-04T15:24:27.245Z,17.44
2024-03-04T15:26:54.394Z,17.44
2024-03-04T15:29:21.140Z,17.40
2024-03-04T15:31:48.046Z,17.38
2024-03-04T15:34:16.016Z,17.37
2024-03-04T15:36:49.918Z,17.33
2024-03-04T15:39:17.613Z,17.27
2024-03-04T15:41:45.920Z,17.19
2024-03-04T15:44:12.954Z,17.18
2024-03-04T15:46:39.832Z,17.15
2024-03-04T15:49:06.854Z,17.11
2024-03-04T15:51:33.476Z,17.05
2024-03-04T15:54:00.049Z,17.04
2024-03-04T15:56:33.890Z,16.99
2024-03-04T15:59:00.716Z,16.99
2024-03-04T16:01:27.524Z,16.92
2024-03-04T16:03:54.300Z,16.87
2024-03-04T16:06:34.799Z,16.86
2024-03-04T16:09:01.562Z,16.80
2024-03-04T16:11:28.358Z,16.76
2024-03-04T16:13:55.095Z,16.73
2024-03-04T16:16:22.976Z,16.65
2024-03-04T16:18:49.763Z,16.64
2024-03-04T16:21:16.359Z,16.58
2024-03-04T16:23:43.049Z,16.54
2024-03-04T16:26:10.865Z,16.48
2024-03-04T16:28:38.900Z,16.39
2024-03-04T16:31:10.804Z,16.29
2024-03-04T16:33:38.573Z,16.25
2024-03-04T16:36:05.810Z,16.19
2024-03-04T16:38:35.525Z,16.10
2024-03-04T16:41:05.296Z,16.05
2024-03-04T16:43:35.170Z,15.96
2024-03-04T16:46:03.704Z,15.93
2024-03-04T16:48:30.453Z,15.81
2024-03-04T16:50:57.213Z,15.77
2024-03-04T16:53:26.205Z,15.62
2024-03-04T16:55:52.939Z,15.61
2024-03-04T16:58:19.588Z,15.54
2024-03-04T17:00:46.325Z,15.50
2024-03-04T17:03:13.001Z,15.39
2024-03-04T17:05:40.167Z,15.26
2024-03-04T17:08:07.236Z,15.24
2024-03-04T17:10:34.020Z,15.15
2024-03-04T17:13:00.737Z,15.05
2024-03-04T17:15:27.859Z,15.01
2024-03-04T17:17:54.568Z,14.94
2024-03-04T17:20:22.720Z,14.87
2024-03-04T17:22:52.552Z,14.81
2024-03-04T17:25:19.309Z,14.74
2024-03-04T17:27:45.932Z,14.67
2024-03-04T17:30:15.993Z,14.57
2024-03-04T17:32:42.745Z,14.44
2024-03-04T17:35:09.695Z,14.41
2024-03-04T17:37:36.334Z,14.30
2024-03-04T17:40:05.539Z,14.22
2024-03-04T17:42:32.615Z,14.12
2024-03-04T17:44:59.305Z,14.04
2024-03-04T17:47:26.071Z,14.04
2024-03-04T17:49:52.815Z,14.00
2024-03-04T17:52:19.478Z,13.87
2024-03-04T17:54:46.116Z,13.84
2024-03-04T17:57:12.824Z,13.72
2024-03-04T17:59:42.318Z,13.67
2024-03-04T18:02:09.887Z,13.61
2024-03-04T18:04:37.207Z,13.51
2024-03-04T18:07:04.628Z,13.45
2024-03-04T18:09:31.819Z,13.36
2024-03-04T18:11:58.480Z,13.34
2024-03-04T18:14:25.174Z,13.24
2024-03-04T18:16:51.908Z,13.22
2024-03-04T18:19:18.617Z,13.18
2024-03-04T18:21:45.563Z,13.11
2024-03-04T18:24:12.674Z,13.07
2024-03-04T18:26:42.786Z,13.01
2024-03-04T18:29:09.527Z,13.02
2024-03-04T18:31:37.835Z,13.00
2024-03-04T18:34:04.351Z,12.96
2024-03-04T18:36:30.855Z,12.95
2024-03-04T18:39:00.042Z,12.94
2024-03-04T18:41:28.330Z,12.88
2024-03-04T18:43:56.101Z,12.84
2024-03-04T18:46:22.934Z,12.84
2024-03-04T18:48:49.514Z,12.79
2024-03-04T18:51:18.658Z,12.77
2024-03-04T18:53:45.178Z,12.76
2024-03-04T18:56:13.688Z,12.78
2024-03-04T18:58:41.000Z,12.73
2024-03-04T19:01:08.521Z,12.68
2024-03-04T19:03:37.031Z,12.66
2024-03-04T19:06:04.420Z,12.60
2024-03-04T19:08:30.881Z,12.55
2024-03-04T19:11:05.139Z,12.49
2024-03-04T19:13:35.529Z,12.39
2024-03-04T19:16:02.202Z,12.34
2024-03-04T19:18:28.972Z,12.30
2024-03-04T19:20:55.951Z,12.18
2024-03-04T19:23:22.625Z,12.13
2024-03-04T19:25:49.415Z,12.08
2024-03-04T19:28:16.089Z,12.07
2024-03-04T19:30:46.106Z,12.00
2024-03-04T19:33:12.708Z,11.96
2024-03-04T19:35:39.292Z,11.93
2024-03-04T19:38:05.829Z,11.92
2024-03-04T19:40:33.331Z,11.91
2024-03-04T19:42:59.963Z,11.89
2024-03-04T19:45:27.339Z,11.88
2024-03-04T19:47:54.253Z,11.79
2024-03-04T19:50:21.937Z,11.74
2024-03-04T19:52:48.532Z,11.69
2024-03-04T19:55:18.103Z,11.66
2024-03-04T19:57:44.622Z,11.63
2024-03-04T20:00:11.819Z,11.59
2024-03-04T20:02:40.713Z,11.61
2024-03-04T20:05:07.884Z,11.60
2024-03-04T20:07:36.572Z,11.58
2024-03-04T20:10:03.558Z,11.56
2024-03-04T20:12:31.469Z,11.52
2024-03-04T20:14:59.623Z,11.50
2024-03-04T20:17:26.442Z,11.46
2024-03-04T20:19:53.016Z,11.38
2024-03-04T20:22:19.597Z,11.32
2024-03-04T20:24:46.092Z,11.27
2024-03-04T20:27:12.594Z,11.24
2024-03-04T20:29:39.082Z,11.14
2024-03-04T20:32:05.996Z,11.12
2024-03-04T20:34:32.593Z,11.06
2024-03-04T20:36:59.101Z,11.05
2024-03-04T20:39:25.618Z,11.03
2024-03-04T20:41:52.113Z,11.01
2024-03-04T20:44:18.733Z,10.98
2024-03-04T20:46:46.069Z,11.03
2024-03-04T20:49:13.798Z,11.00
2024-03-04T20:51:40.481Z,10.97
2024-03-04T20:54:06.993Z,11.04
2024-03-04T20:56:33.578Z,10.99
2024-03-04T20:59:00.099Z,10.98
2024-03-04T21:01:26.953Z,10.94
2024-03-04T21:03:53.567Z,10.91
2024-03-04T21:06:20.047Z,10.80
2024-03-04T21:08:46.849Z,10.81
2024-03-04T21:11:15.359Z,10.71
2024-03-04T21:13:42.137Z,10.72
2024-03-04T21:16:09.112Z,10.70
2024-03-04T21:18:37.461Z,10.68
2024-03-04T21:21:04.219Z,10.68
2024-03-04T21:23:30.720Z,10.67
2024-03-04T21:25:57.339Z,10.63
2024-03-04T21:28:23.945Z,10.64
2024-03-04T21:30:50.417Z,10.62
2024-03-04T21:33:17.065Z,10.60
2024-03-04T21:35:43.607Z,10.54
2024-03-04T21:38:10.114Z,10.57
2024-03-04T21:40:36.863Z,10.50
2024-03-04T21:43:03.461Z,10.54
2024-03-04T21:45:30.154Z,10.51
2024-03-04T21:47:56.670Z,10.50
2024-03-04T21:50:23.233Z,10.41
2024-03-04T21:52:49.736Z,10.45
2024-03-04T21:55:18.413Z,10.47
2024-03-04T21:57:45.893Z,10.42
2024-03-04T22:00:16.141Z,10.45
2024-03-04T22:02:45.110Z,10.37
2024-03-04T22:05:12.396Z,10.39
2024-03-04T22:07:39.689Z,10.41
2024-03-04T22:10:08.482Z,10.40
2024-03-04T22:12:37.898Z,10.40
2024-03-04T22:15:05.659Z,10.34
2024-03-04T22:17:33.309Z,10.35
2024-03-04T22:20:00.257Z,10.32
2024-03-04T22:22:27.502Z,10.28
2024-03-04T22:24:54.130Z,10.24
2024-03-04T22:27:21.530Z,10.28
2024-03-04T22:29:48.453Z,10.32
2024-03-04T22:32:15.285Z,10.33
2024-03-04T22:34:42.221Z,10.24
2024-03-04T22:37:09.306Z,10.30
2024-03-04T22:39:40.248Z,10.26
2024-03-04T22:42:07.281Z,10.23
2024-03-04T22:44:33.855Z,10.29
2024-03-04T22:47:00.478Z,10.31
2024-03-04T22:49:27.167Z,10.29
2024-03-04T22:51:53.806Z,10.31
2024-03-04T22:54:20.281Z,10.34
2024-03-04T22:56:46.814Z,10.30
2024-03-04T22:59:13.244Z,10.25
2024-03-04T23:01:39.831Z,10.23
2024-03-04T23:04:06.383Z,10.15
2024-03-04T23:06:32.937Z,10.06
2024-03-04T23:09:00.266Z,10.12
2024-03-04T23:11:28.309Z,10.09
2024-03-04T23:13:54.959Z,10.04
2024-03-04T23:16:21.571Z,9.96
2024-03-04T23:18:48.091Z,9.93
2024-03-04T23:21:14.608Z,9.94
2024-03-04T23:23:42.429Z,9.85
2024-03-04T23:26:09.815Z,9.83
2024-03-04T23:28:38.604Z,9.78
2024-03-04T23:31:05.279Z,9.79
2024-03-04T23:33:31.805Z,9.72
2024-03-04T23:35:58.542Z,9.82
2024-03-04T23:38:26.216Z,9.77
2024-03-04T23:40:54.098Z,9.81
2024-03-04T23:43:21.237Z,9.78
2024-03-04T23:45:47.892Z,9.78
2024-03-04T23:48:14.453Z,9.76
2024-03-04T23:50:41.547Z,9.78
2024-03-04T23:53:08.439Z,9.80
2024-03-04T23:55:35.072Z,9.78
2024-03-04T23:58:01.712Z,9.70
